Time;durP1;ratioP1;P1;durP2;ratioP2;P2;SDS_P1;SDS_P2;PMS_P1;PMS_P2;Temp;Humidity;BMP_temperature;BMP_pressure;BME280_temperature;BME280_humidity;BME280_pressure;Samples;Min_cycle;Max_cycle;Signal;HPM_P1;HPM_P2
2022/08/04 00:00:22;;;;;;;12.07;5.35;;;;;;;8.37;100.00;101091.16;5015273;28;20038;-77
2022/08/04 00:03:06;;;;;;;9.95;3.58;;;;;;;8.27;100.00;101085.03;5012447;28;20040;-78
2022/08/04 00:05:32;;;;;;;15.10;4.65;;;;;;;8.50;100.00;101106.06;5014998;28;20562;-76
2022/08/04 00:08:16;;;;;;;21.70;4.13;;;;;;;8.64;100.00;101091.25;5017842;28;20029;-77
2022/08/04 00:10:46;;;;;;;10.05;3.92;;;;;;;8.89;100.00;101097.63;5016713;28;20037;-77
2022/08/04 00:13:12;;;;;;;18.48;4.28;;;;;;;9.06;100.00;101098.59;4984778;28;20496;-77
2022/08/04 00:15:41;;;;;;;17.38;4.82;;;;;;;9.12;100.00;101098.81;5014667;28;20045;-77
2022/08/04 00:18:08;;;;;;;20.52;4.57;;;;;;;9.15;100.00;101105.69;5019890;28;20060;-77
2022/08/04 00:20:37;;;;;;;10.60;4.30;;;;;;;9.22;100.00;101104.91;5003977;28;20121;-77
2022/08/04 00:23:05;;;;;;;15.23;3.60;;;;;;;9.17;100.00;101088.44;5007576;28;20041;-77
2022/08/04 00:25:31;;;;;;;20.23;4.20;;;;;;;9.33;100.00;101105.66;5022861;28;20033;-77
2022/08/04 00:27:59;;;;;;;7.72;3.40;;;;;;;9.40;100.00;101110.22;5003934;28;20379;-77
2022/08/04 00:30:25;;;;;;;15.30;4.10;;;;;;;9.47;100.00;101107.72;4988275;28;20041;-77
2022/08/04 00:32:52;;;;;;;14.25;4.78;;;;;;;9.49;100.00;101108.41;5013968;28;20030;-77
2022/08/04 00:35:18;;;;;;;12.50;3.92;;;;;;;9.44;100.00;101095.47;5024892;28;20076;-77
2022/08/04 00:37:44;;;;;;;14.00;3.22;;;;;;;9.40;100.00;101099.47;5021614;28;20045;-77
2022/08/04 00:40:16;;;;;;;17.48;4.22;;;;;;;9.35;100.00;101099.13;4999478;28;20088;-77
2022/08/04 00:42:47;;;;;;;10.20;3.80;;;;;;;9.12;100.00;101077.34;5004877;28;20065;-77
2022/08/04 00:45:45;;;;;;;14.57;3.70;;;;;;;8.97;100.00;101095.00;5005896;28;20033;-77
2022/08/04 00:48:14;;;;;;;9.88;3.08;;;;;;;8.62;100.00;101096.75;5028194;28;20052;-76
2022/08/04 00:51:11;;;;;;;15.77;3.28;;;;;;;8.32;100.00;101098.81;5020708;28;20040;-77
2022/08/04 00:53:53;;;;;;;6.22;2.70;;;;;;;8.17;100.00;101103.00;5021095;28;20488;-77
2022/08/04 00:56:38;;;;;;;5.57;2.58;;;;;;;8.06;100.00;101113.94;5021250;28;20059;-77
2022/08/04 00:59:12;;;;;;;10.27;3.35;;;;;;;7.94;100.00;101110.66;4997458;28;20041;-77
2022/08/04 01:01:57;;;;;;;7.05;2.65;;;;;;;7.82;100.00;101112.66;5006298;28;20698;-77
2022/08/04 01:04:34;;;;;;;13.57;3.10;;;;;;;7.62;100.00;101095.00;5023104;28;20578;-78
2022/08/04 01:07:05;;;;;;;8.40;2.55;;;;;;;7.63;100.00;101118.13;5003928;28;20065;-77
2022/08/04 01:10:03;;;;;;;4.18;2.28;;;;;;;7.49;100.00;101124.81;5008090;28;20414;-77
2022/08/04 01:12:48;;;;;;;7.22;2.70;;;;;;;7.28;100.00;101111.66;5049777;28;20250;-78
2022/08/04 01:15:35;;;;;;;12.20;2.53;;;;;;;7.29;100.00;101120.50;4986130;28;20029;-78
2022/08/04 01:18:01;;;;;;;5.57;2.47;;;;;;;7.20;100.00;101107.03;4995559;28;20529;-77
2022/08/04 01:20:34;;;;;;;10.63;2.50;;;;;;;7.26;100.00;101125.16;4999210;28;20033;-77
2022/08/04 01:23:23;;;;;;;11.20;2.75;;;;;;;7.14;100.00;101112.09;5021926;28;20483;-77
2022/08/04 01:26:13;;;;;;;8.05;2.85;;;;;;;7.15;100.00;101124.50;4999296;28;20072;-77
2022/08/04 01:29:04;;;;;;;6.60;2.60;;;;;;;6.77;100.00;101070.09;5006302;28;20049;-77
2022/08/04 01:31:41;;;;;;;7.90;2.88;;;;;;;7.05;100.00;101114.66;5003883;28;20057;-77
2022/08/04 01:34:11;;;;;;;9.13;2.78;;;;;;;6.96;100.00;101123.53;5012771;28;20040;-77
2022/08/04 01:37:00;;;;;;;7.60;2.83;;;;;;;6.66;100.00;101099.66;4994877;28;20497;-76
2022/08/04 01:39:39;;;;;;;8.02;2.45;;;;;;;6.72;100.00;101126.66;5021306;28;20060;-76
2022/08/04 01:42:06;;;;;;;9.32;3.20;;;;;;;6.63;100.00;101126.66;4992064;28;20034;-78
2022/08/04 01:44:34;;;;;;;9.90;2.55;;;;;;;6.64;100.00;101125.66;5009703;28;20239;-77
2022/08/04 01:47:00;;;;;;;7.80;2.72;;;;;;;6.67;100.00;101136.06;5029760;28;20032;-77
2022/08/04 01:49:30;;;;;;;5.53;2.35;;;;;;;6.71;100.00;101135.66;5026502;28;20079;-77
2022/08/04 01:51:57;;;;;;;5.22;2.45;;;;;;;6.70;100.00;101119.78;5023142;28;20468;-77
2022/08/04 01:54:23;;;;;;;8.52;2.90;;;;;;;6.88;100.00;101127.91;5004705;28;20033;-77
2022/08/04 01:56:51;;;;;;;6.05;2.58;;;;;;;7.08;100.00;101128.72;5022592;28;20084;-76
2022/08/04 01:59:18;;;;;;;14.00;3.00;;;;;;;7.30;100.00;101133.72;5026048;28;20044;-77
2022/08/04 02:01:44;;;;;;;8.88;2.75;;;;;;;7.51;100.00;101130.00;5023024;28;20033;-77
2022/08/04 02:04:15;;;;;;;11.85;2.95;;;;;;;7.65;100.00;101130.38;4996044;28;20478;-77
2022/08/04 02:06:55;;;;;;;10.32;2.97;;;;;;;7.73;100.00;101137.66;5017759;28;20030;-77
2022/08/04 02:09:23;;;;;;;12.10;2.75;;;;;;;7.63;100.00;101142.22;5023934;28;20051;-76
2022/08/04 02:12:03;;;;;;;9.88;4.53;;;;;;;7.36;100.00;101138.50;5012312;28;20091;-77
2022/08/04 02:14:39;;;;;;;10.48;2.67;;;;;;;7.22;100.00;101138.94;4989491;28;20467;-77
2022/08/04 02:17:22;;;;;;;14.40;3.00;;;;;;;7.05;100.00;101122.66;5001626;28;20056;-76
2022/08/04 02:20:22;;;;;;;6.90;2.22;;;;;;;7.11;100.00;101139.97;5027170;28;20087;-77
2022/08/04 02:22:59;;;;;;;7.90;2.65;;;;;;;7.09;100.00;101141.09;5022278;28;20223;-77
2022/08/04 02:25:28;;;;;;;12.88;2.63;;;;;;;6.98;100.00;101129.56;4990821;28;20503;-78
2022/08/04 02:28:07;;;;;;;6.68;2.70;;;;;;;6.90;100.00;101112.56;5026488;28;20552;-76
2022/08/04 02:30:43;;;;;;;9.23;2.80;;;;;;;7.03;100.00;101129.97;5005962;28;20133;-77
2022/08/04 02:33:12;;;;;;;3.88;2.20;;;;;;;6.95;100.00;101140.56;5025067;28;20048;-77
2022/08/04 02:35:40;;;;;;;3.95;2.05;;;;;;;6.81;100.00;101141.84;4991164;28;20053;-77
2022/08/04 02:38:15;;;;;;;5.05;2.60;;;;;;;6.80;100.00;101131.28;5004234;28;20030;-78
2022/08/04 02:40:41;;;;;;;10.10;2.47;;;;;;;6.88;100.00;101142.13;5004380;28;20116;-77
2022/08/04 02:43:09;;;;;;;5.25;2.78;;;;;;;6.97;100.00;101138.59;5006503;28;20498;-77
2022/08/04 02:45:40;;;;;;;8.73;2.47;;;;;;;6.89;100.00;101143.81;5004439;28;20043;-77
2022/08/04 02:48:08;;;;;;;6.82;2.40;;;;;;;6.79;100.00;101145.63;5004615;28;20495;-78
2022/08/04 02:50:36;;;;;;;6.00;2.22;;;;;;;6.78;100.00;101158.16;5030314;28;20044;-76
2022/08/04 02:53:03;;;;;;;6.95;2.38;;;;;;;6.75;100.00;101152.28;5025493;28;20041;-77
2022/08/04 02:55:29;;;;;;;10.95;2.45;;;;;;;6.78;100.00;101158.16;5022898;28;20087;-77
2022/08/04 02:57:57;;;;;;;6.53;2.22;;;;;;;6.80;100.00;101158.00;5028014;28;20511;-77
2022/08/04 03:00:23;;;;;;;6.80;2.20;;;;;;;6.68;100.00;101151.97;5005290;28;20037;-77
2022/08/04 03:02:58;;;;;;;6.97;2.15;;;;;;;6.65;100.00;101146.09;5028919;28;20491;-77
2022/08/04 03:05:30;;;;;;;5.30;1.95;;;;;;;6.80;100.00;101148.19;5022798;28;20091;-77
2022/08/04 03:08:15;;;;;;;7.47;2.05;;;;;;;6.80;100.00;101136.63;5020618;28;20033;-77
2022/08/04 03:10:50;;;;;;;5.35;2.10;;;;;;;6.91;100.00;101149.88;5032873;28;20033;-77
2022/08/04 03:14:01;;;;;;;5.45;2.10;;;;;;;6.78;100.00;101170.69;5006517;28;20052;-77
2022/08/04 03:16:57;;;;;;;3.42;1.63;;;;;;;6.50;100.00;101154.50;5008479;28;20132;-77
2022/08/04 03:20:04;;;;;;;5.65;1.55;;;;;;;6.48;100.00;101166.31;5012073;28;20128;-77
2022/08/04 03:22:39;;;;;;;6.35;1.67;;;;;;;6.48;100.00;101167.13;5025580;28;20048;-77
2022/08/04 03:25:29;;;;;;;6.60;2.08;;;;;;;6.39;100.00;101163.47;5003441;28;20072;-77
2022/08/04 03:28:13;;;;;;;4.47;1.65;;;;;;;6.37;100.00;101162.78;5025619;28;20100;-77
2022/08/04 03:31:03;;;;;;;7.28;1.67;;;;;;;6.44;100.00;101171.09;4986158;28;20074;-77
2022/08/04 03:33:39;;;;;;;5.57;1.65;;;;;;;6.41;100.00;101176.72;5018301;28;20038;-76
2022/08/04 03:36:17;;;;;;;5.53;1.88;;;;;;;6.30;100.00;101182.19;5022729;28;20045;-79
2022/08/04 03:39:14;;;;;;;5.43;1.90;;;;;;;6.32;100.00;101180.19;5017135;28;20041;-77
2022/08/04 03:42:00;;;;;;;4.53;1.67;;;;;;;6.25;100.00;101181.75;5007450;28;20033;-77
2022/08/04 03:44:38;;;;;;;8.63;2.70;;;;;;;6.15;100.00;101192.41;5024016;28;20120;-76
2022/08/04 03:47:24;;;;;;;6.30;1.70;;;;;;;6.07;100.00;101176.22;5004574;28;20294;-77
2022/08/04 03:50:11;;;;;;;5.18;2.00;;;;;;;5.99;100.00;101152.88;5005790;28;20087;-76
2022/08/04 03:53:08;;;;;;;4.75;2.33;;;;;;;6.28;100.00;101201.00;5007340;28;20025;-77
2022/08/04 03:55:50;;;;;;;4.60;1.80;;;;;;;6.21;100.00;101199.00;4991215;28;20076;-77
2022/08/04 03:58:36;;;;;;;8.95;1.85;;;;;;;6.06;100.00;101199.41;4989736;28;20034;-77
2022/08/04 04:01:37;;;;;;;2.28;1.58;;;;;;;5.97;100.00;101202.03;5001875;28;20124;-77
2022/08/04 04:04:29;;;;;;;4.10;1.60;;;;;;;6.06;100.00;101204.75;5024805;28;20067;-77
2022/08/04 04:07:24;;;;;;;3.38;1.75;;;;;;;5.92;100.00;101218.41;5006720;28;20033;-77
2022/08/04 04:10:40;;;;;;;4.75;2.00;;;;;;;5.75;100.00;101222.56;5012974;28;20040;-77
2022/08/04 04:13:28;;;;;;;3.70;2.00;;;;;;;5.82;100.00;101214.84;4995130;28;20049;-77
2022/08/04 04:16:16;;;;;;;4.60;1.88;;;;;;;5.81;100.00;101222.03;5006715;28;20022;-77
2022/08/04 04:18:51;;;;;;;3.33;2.00;;;;;;;5.81;100.00;101221.19;5002528;28;20663;-77
2022/08/04 04:22:06;;;;;;;5.63;1.88;;;;;;;5.75;100.00;101227.91;4992022;28;20030;-77
2022/08/04 04:24:39;;;;;;;9.35;2.00;;;;;;;5.56;100.00;101233.13;5019725;28;20071;-77
2022/08/04 04:27:32;;;;;;;4.63;2.20;;;;;;;5.44;100.00;101240.34;5008518;28;20062;-77
2022/08/04 04:30:55;;;;;;;3.78;1.90;;;;;;;5.29;100.00;101243.34;4997392;28;20040;-77
2022/08/04 04:33:52;;;;;;;5.90;1.90;;;;;;;5.21;100.00;101229.84;5006180;28;20147;-77
2022/08/04 04:36:29;;;;;;;2.72;1.67;;;;;;;5.35;100.00;101239.31;5012160;28;20060;-77
2022/08/04 04:39:32;;;;;;;4.65;1.63;;;;;;;5.47;100.00;101248.09;5029840;28;20042;-77
2022/08/04 04:42:05;;;;;;;3.45;1.63;;;;;;;5.49;100.00;101246.16;5016509;28;20120;-76
2022/08/04 04:44:46;;;;;;;3.03;1.58;;;;;;;5.45;100.00;101256.25;5015698;28;20037;-77
2022/08/04 04:47:29;;;;;;;2.55;1.70;;;;;;;5.32;100.00;101252.91;5003854;28;20068;-77
2022/08/04 04:50:11;;;;;;;4.82;2.00;;;;;;;5.20;100.00;101252.13;5006559;28;20029;-76
2022/08/04 04:52:42;;;;;;;5.28;2.00;;;;;;;5.18;100.00;101256.72;5024250;28;20041;-77
2022/08/04 04:55:21;;;;;;;4.97;1.88;;;;;;;5.11;100.00;101247.56;5021878;28;20037;-77
2022/08/04 04:57:49;;;;;;;3.78;1.60;;;;;;;5.21;100.00;101252.97;5016432;28;20562;-77
2022/08/04 05:00:16;;;;;;;2.92;1.70;;;;;;;5.17;100.00;101256.88;4994523;28;20034;-77
2022/08/04 05:03:16;;;;;;;2.58;1.88;;;;;;;5.16;100.00;101264.03;5010632;28;20033;-77
2022/08/04 05:05:57;;;;;;;4.57;1.67;;;;;;;5.20;100.00;101264.59;5018311;28;20132;-77
2022/08/04 05:08:37;;;;;;;4.43;2.00;;;;;;;5.15;100.00;101238.31;5030044;28;20037;-77
2022/08/04 05:11:44;;;;;;;3.45;1.70;;;;;;;5.26;100.00;101266.75;5001813;28;20041;-77
2022/08/04 05:14:14;;;;;;;2.78;1.60;;;;;;;5.19;100.00;101266.44;5006590;28;20561;-77
2022/08/04 05:16:50;;;;;;;3.70;2.00;;;;;;;5.41;100.00;101276.13;5021229;28;20052;-76
2022/08/04 05:19:22;;;;;;;4.55;2.10;;;;;;;5.41;100.00;101257.47;5012736;28;20026;-76
2022/08/04 05:21:52;;;;;;;4.82;2.13;;;;;;;5.59;100.00;101278.22;5023376;28;20033;-76
2022/08/04 05:24:19;;;;;;;4.55;2.22;;;;;;;5.95;100.00;101284.91;5006611;28;20179;-76
2022/08/04 05:26:51;;;;;;;4.00;2.03;;;;;;;6.50;100.00;101285.41;5017666;28;20417;-77
2022/08/04 05:29:45;;;;;;;7.13;2.03;;;;;;;6.60;100.00;101296.13;5030381;28;20040;-78
2022/08/04 05:32:14;;;;;;;6.85;2.28;;;;;;;6.45;100.00;101297.47;5003213;28;20132;-77
2022/08/04 05:34:52;;;;;;;4.07;1.80;;;;;;;6.36;100.00;101299.16;5013128;28;20146;-76
2022/08/04 05:37:19;;;;;;;3.78;1.98;;;;;;;6.34;100.00;101282.41;5008261;28;20048;-78
2022/08/04 05:39:55;;;;;;;5.82;1.75;;;;;;;6.54;100.00;101305.53;5020447;28;20037;-76
2022/08/04 05:42:21;;;;;;;3.95;1.73;;;;;;;6.62;100.00;101309.34;5024738;28;20107;-76
2022/08/04 05:44:47;;;;;;;3.67;1.60;;;;;;;6.69;100.00;101299.78;5020976;28;20026;-76
2022/08/04 05:47:14;;;;;;;8.13;1.90;;;;;;;6.66;100.00;101306.25;4993203;28;20124;-77
2022/08/04 05:49:40;;;;;;;3.70;1.85;;;;;;;6.59;100.00;101305.97;5010618;28;20033;-77
2022/08/04 05:52:07;;;;;;;4.00;1.67;;;;;;;6.67;100.00;101312.44;5005808;28;20064;-77
2022/08/04 05:54:34;;;;;;;3.25;1.80;;;;;;;6.67;100.00;101301.75;5018282;28;20037;-77
2022/08/04 05:57:03;;;;;;;6.75;1.80;;;;;;;6.82;100.00;101314.59;5009163;28;21028;-77
2022/08/04 05:59:30;;;;;;;3.17;1.25;;;;;;;7.03;100.00;101333.19;4990296;28;20030;-77
2022/08/04 06:01:59;;;;;;;4.68;1.50;;;;;;;7.79;100.00;101335.16;5003907;28;20508;-76
2022/08/04 06:04:34;;;;;;;3.83;1.52;;;;;;;8.60;100.00;101345.38;5010101;28;20064;-77
2022/08/04 06:07:00;;;;;;;5.75;2.10;;;;;;;9.01;100.00;101341.31;5012984;28;20041;-76
2022/08/04 06:09:26;;;;;;;3.83;2.50;;;;;;;8.68;100.00;101344.63;4992502;28;20064;-77
2022/08/04 06:11:52;;;;;;;3.80;2.75;;;;;;;8.49;100.00;101351.75;5003986;28;20038;-77
2022/08/04 06:14:21;;;;;;;5.13;3.05;;;;;;;8.25;100.00;101320.09;4980310;28;20475;-77
2022/08/04 06:16:49;;;;;;;5.40;2.67;;;;;;;8.46;100.00;101346.69;5002272;28;20026;-77
2022/08/04 06:19:16;;;;;;;6.90;2.67;;;;;;;8.57;100.00;101357.25;5003520;28;20076;-77
2022/08/04 06:21:47;;;;;;;5.55;2.58;;;;;;;8.67;100.00;101362.53;5031919;28;20109;-77
2022/08/04 06:24:18;;;;;;;9.35;3.47;;;;;;;8.89;100.00;101364.00;5010609;28;20122;-77
2022/08/04 06:26:46;;;;;;;6.07;2.50;;;;;;;9.43;100.00;101367.56;5022269;28;20041;-77
2022/08/04 06:29:22;;;;;;;4.40;2.15;;;;;;;9.94;100.00;101370.50;4996134;28;20387;-77
2022/08/04 06:31:57;;;;;;;6.40;2.55;;;;;;;10.13;100.00;101381.06;5008565;28;20034;-77
2022/08/04 06:34:24;;;;;;;6.13;1.67;;;;;;;10.20;100.00;101375.06;5028359;28;20071;-77
2022/08/04 06:36:51;;;;;;;4.05;1.50;;;;;;;10.31;100.00;101385.56;5006941;28;20099;-77
2022/08/04 06:39:17;;;;;;;4.28;2.15;;;;;;;10.37;100.00;101387.59;5029250;28;20394;-77
2022/08/04 06:41:43;;;;;;;5.03;1.88;;;;;;;10.43;100.00;101386.16;4982710;28;21313;-77
2022/08/04 06:44:10;;;;;;;4.93;1.73;;;;;;;10.48;100.00;101395.44;5006995;28;20046;-77
2022/08/04 06:46:40;;;;;;;9.13;1.90;;;;;;;10.50;100.00;101393.41;5021897;28;20040;-77
2022/08/04 06:49:06;;;;;;;3.75;1.50;;;;;;;10.55;100.00;101396.44;5011528;28;20061;-77
2022/08/04 06:51:36;;;;;;;3.08;1.98;;;;;;;10.73;100.00;101400.91;5002254;28;20443;-77
2022/08/04 06:54:02;;;;;;;4.65;1.70;;;;;;;10.97;100.00;101410.94;5014293;28;20072;-77
2022/08/04 06:56:29;;;;;;;4.00;1.70;;;;;;;11.15;100.00;101405.47;5011529;28;20116;-76
2022/08/04 06:58:55;;;;;;;10.05;2.55;;;;;;;11.30;100.00;101411.91;5010113;28;20034;-77
2022/08/04 07:01:22;;;;;;;4.82;1.80;;;;;;;11.40;100.00;101415.25;4990452;28;20119;-76
2022/08/04 07:03:48;;;;;;;4.63;1.60;;;;;;;11.44;100.00;101408.53;5017663;28;20159;-76
2022/08/04 07:06:13;;;;;;;8.25;1.80;;;;;;;11.42;100.00;101421.31;5027428;28;20041;-77
2022/08/04 07:08:39;;;;;;;5.55;1.75;;;;;;;11.35;100.00;101397.91;4980006;28;20131;-77
2022/08/04 07:11:05;;;;;;;3.25;1.40;;;;;;;11.30;100.00;101398.44;5002244;28;20052;-78
2022/08/04 07:13:32;;;;;;;5.28;1.70;;;;;;;11.25;100.00;101414.22;5016696;28;20039;-77
2022/08/04 07:15:59;;;;;;;4.50;1.70;;;;;;;11.17;100.00;101423.13;5014954;28;20030;-76
2022/08/04 07:18:24;;;;;;;7.30;1.75;;;;;;;11.06;100.00;101414.50;4987811;28;20083;-77
2022/08/04 07:20:51;;;;;;;4.97;1.70;;;;;;;11.12;100.00;101433.53;5000023;28;20395;-77
2022/08/04 07:23:22;;;;;;;7.78;1.58;;;;;;;11.07;100.00;101432.34;5038197;28;20033;-76
2022/08/04 07:26:14;;;;;;;3.63;1.50;;;;;;;10.92;100.00;101424.03;5015468;28;20036;-77
2022/08/04 07:28:43;;;;;;;3.03;1.45;;;;;;;11.00;100.00;101427.59;5010137;28;20049;-77
2022/08/04 07:32:14;;;;;;;4.70;1.65;;;;;;;11.88;100.00;101435.25;5023940;28;20080;-78
2022/08/04 07:35:10;;;;;;;2.30;1.80;;;;;;;14.34;100.00;101428.69;4988101;28;20112;-77
2022/08/04 07:37:35;;;;;;;3.08;1.70;;;;;;;15.96;97.10;101407.81;5004523;28;20040;-76
2022/08/04 07:40:01;;;;;;;2.67;1.77;;;;;;;16.30;94.11;101435.19;5000982;28;20033;-78
2022/08/04 07:42:30;;;;;;;4.90;2.33;;;;;;;17.82;88.97;101443.28;4992128;28;20045;-77
2022/08/04 07:44:57;;;;;;;5.30;1.52;;;;;;;19.21;85.25;101447.75;5026907;28;20087;-76
2022/08/04 07:47:23;;;;;;;4.50;1.48;;;;;;;20.74;81.81;101443.91;5019394;28;20084;-77
2022/08/04 07:49:49;;;;;;;5.53;1.65;;;;;;;21.83;74.26;101452.25;5019222;28;20029;-77
2022/08/04 07:52:15;;;;;;;4.30;1.38;;;;;;;22.13;69.21;101456.81;5005365;28;20022;-77
2022/08/04 07:54:41;;;;;;;7.45;1.92;;;;;;;22.34;69.69;101455.44;5007708;28;20041;-77
2022/08/04 07:57:06;;;;;;;6.22;1.30;;;;;;;22.57;66.73;101449.13;4989398;28;20041;-77
2022/08/04 07:59:32;;;;;;;7.97;1.60;;;;;;;22.77;66.71;101454.25;5017280;28;20040;-77
2022/08/04 08:02:00;;;;;;;4.13;1.45;;;;;;;23.06;63.84;101448.88;5009614;28;20034;-77
2022/08/04 08:04:26;;;;;;;3.58;1.48;;;;;;;23.26;63.82;101458.34;4983877;28;20446;-76
2022/08/04 08:06:53;;;;;;;3.78;1.45;;;;;;;23.82;61.23;101455.03;4987092;28;20480;-77
2022/08/04 08:09:22;;;;;;;5.32;1.63;;;;;;;24.16;56.06;101458.66;5026029;28;20036;-77
2022/08/04 08:11:50;;;;;;;7.32;1.60;;;;;;;23.49;55.23;101457.41;5010370;28;20471;-76
2022/08/04 08:14:17;;;;;;;7.30;1.65;;;;;;;23.50;53.86;101461.00;4990665;28;20061;-76
2022/08/04 08:16:43;;;;;;;9.63;2.00;;;;;;;21.71;58.10;101465.03;5005269;28;20036;-77
2022/08/04 08:19:09;;;;;;;8.63;1.83;;;;;;;20.23;59.64;101455.09;5004382;28;20034;-76
2022/08/04 08:21:35;;;;;;;6.38;1.42;;;;;;;18.31;65.42;101462.97;5001032;28;20057;-76
2022/08/04 08:24:00;;;;;;;8.35;1.48;;;;;;;17.45;72.96;101453.63;5023434;28;20038;-77
2022/08/04 08:26:27;;;;;;;12.57;1.92;;;;;;;17.59;73.37;101470.81;5026885;28;20402;-76
2022/08/04 08:28:53;;;;;;;7.57;1.77;;;;;;;18.61;71.46;101474.28;4990327;28;20107;-77
2022/08/04 08:31:19;;;;;;;9.27;1.95;;;;;;;19.83;64.50;101478.06;5016225;28;20029;-77
2022/08/04 08:33:45;;;;;;;12.38;1.95;;;;;;;19.48;60.34;101469.44;5011589;28;20037;-76
2022/08/04 08:36:23;;;;;;;5.45;1.55;;;;;;;21.92;56.45;101475.47;5000739;28;20045;-78
2022/08/04 08:38:56;;;;;;;6.05;2.00;;;;;;;22.34;54.36;101475.47;5012682;28;20492;-76
2022/08/04 08:41:59;;;;;;;5.47;1.75;;;;;;;20.83;54.58;101477.28;4997177;28;20038;-76
2022/08/04 08:44:43;;;;;;;7.90;2.88;;;;;;;23.65;44.52;101474.19;5022062;28;20033;-76
2022/08/04 08:47:28;;;;;;;10.05;1.88;;;;;;;24.85;41.66;101457.47;5011883;28;20096;-75
2022/08/04 08:50:12;;;;;;;7.05;1.50;;;;;;;25.62;39.16;101476.63;5005105;28;20037;-75
2022/08/04 08:52:57;;;;;;;5.22;1.80;;;;;;;25.76;35.78;101482.56;5003435;28;20031;-75
2022/08/04 08:55:44;;;;;;;11.35;2.05;;;;;;;24.77;39.72;101481.59;5008955;28;20029;-77
2022/08/04 08:58:19;;;;;;;10.55;1.63;;;;;;;24.07;39.06;101480.19;5003979;28;20030;-79
2022/08/04 09:00:57;;;;;;;7.55;1.73;;;;;;;25.20;36.91;101490.19;5007475;28;20029;-79
2022/08/04 09:04:20;;;;;;;9.48;1.80;;;;;;;25.91;38.54;101483.81;5010251;28;20038;-79
2022/08/04 09:07:25;;;;;;;7.10;1.83;;;;;;;26.89;36.75;101486.28;4973768;28;20500;-79
2022/08/04 09:09:56;;;;;;;6.95;1.70;;;;;;;26.32;32.76;101474.81;4968663;28;20510;-78
2022/08/04 09:12:52;;;;;;;6.20;1.55;;;;;;;25.42;33.65;101488.25;5029276;28;20045;-79
2022/08/04 09:15:35;;;;;;;6.93;2.20;;;;;;;22.51;36.90;101480.22;5033936;28;20491;-78
2022/08/04 09:18:06;;;;;;;8.15;2.15;;;;;;;24.49;34.58;101485.31;5001205;28;20060;-79
2022/08/04 09:20:48;;;;;;;20.98;2.45;;;;;;;26.06;33.00;101490.31;5007595;28;20049;-80
2022/08/04 09:23:25;;;;;;;5.30;1.88;;;;;;;24.50;34.87;101495.22;5029118;28;20573;-81
2022/08/04 09:26:15;;;;;;;9.02;2.13;;;;;;;25.77;33.98;101484.22;5024308;28;20568;-80
2022/08/04 09:28:50;;;;;;;7.82;2.08;;;;;;;27.31;31.35;101488.97;5014774;28;20126;-80
2022/08/04 09:31:35;;;;;;;8.27;2.00;;;;;;;27.47;29.07;101491.78;5030193;28;20033;-79
2022/08/04 09:34:08;;;;;;;6.63;1.55;;;;;;;27.61;29.19;101484.66;4996594;28;20041;-78
2022/08/04 09:36:40;;;;;;;5.35;1.60;;;;;;;26.41;30.29;101477.09;5011958;28;20132;-79
2022/08/04 09:39:18;;;;;;;6.93;2.00;;;;;;;27.33;28.18;101489.53;5002682;28;20042;-80
2022/08/04 09:42:20;;;;;;;7.72;1.95;;;;;;;27.88;28.07;101481.69;5011230;28;20026;-79
2022/08/04 09:45:16;;;;;;;12.73;2.05;;;;;;;24.74;33.10;101495.00;5005719;28;20128;-79
2022/08/04 09:47:54;;;;;;;10.02;3.13;;;;;;;26.37;32.03;101493.34;5023514;28;20111;-79
2022/08/04 09:50:25;;;;;;;6.82;1.85;;;;;;;28.08;28.83;101491.09;5030801;28;20072;-79
2022/08/04 09:52:51;;;;;;;9.82;2.42;;;;;;;28.61;27.67;101486.97;5026236;28;20041;-81
2022/08/04 09:55:38;;;;;;;6.30;1.92;;;;;;;29.28;27.48;101490.38;5020059;28;20088;-80
2022/08/04 09:58:11;;;;;;;8.10;2.15;;;;;;;29.53;25.30;101494.09;5007618;28;20041;-81
2022/08/04 10:00:50;;;;;;;7.90;2.55;;;;;;;26.90;29.45;101493.44;4998088;28;20040;-80
2022/08/04 10:03:18;;;;;;;10.88;1.80;;;;;;;23.23;35.53;101501.88;4999834;28;20045;-80
2022/08/04 10:06:00;;;;;;;8.15;1.55;;;;;;;21.13;40.03;101501.13;4994397;28;20180;-80
2022/08/04 10:08:35;;;;;;;6.47;1.70;;;;;;;23.16;37.29;101510.25;5011375;28;20041;-80
2022/08/04 10:11:20;;;;;;;9.73;1.73;;;;;;;21.56;40.18;101505.66;5027363;28;20776;-80
2022/08/04 10:14:24;;;;;;;8.00;1.75;;;;;;;24.82;34.11;101507.50;5041357;28;20858;-80
2022/08/04 10:16:58;;;;;;;7.53;2.10;;;;;;;27.24;29.35;101507.72;5019512;28;20034;-79
2022/08/04 10:19:30;;;;;;;6.38;1.92;;;;;;;27.15;30.22;101507.38;5007834;28;20041;-77
2022/08/04 10:22:08;;;;;;;7.85;2.22;;;;;;;27.97;27.81;101507.69;5005814;28;20049;-79
2022/08/04 10:25:12;;;;;;;12.30;1.70;;;;;;;27.48;27.82;101510.03;5013701;28;20092;-80
2022/08/04 10:27:54;;;;;;;9.45;1.60;;;;;;;24.27;32.36;101509.94;5000333;28;20045;-77
2022/08/04 10:30:20;;;;;;;7.65;1.90;;;;;;;26.61;30.61;101507.59;5022999;28;20041;-77
2022/08/04 10:32:54;;;;;;;4.95;1.35;;;;;;;27.02;29.36;101518.91;5005060;28;20037;-77
2022/08/04 10:35:25;;;;;;;7.57;1.77;;;;;;;24.52;33.54;101511.47;5009509;28;20034;-79
2022/08/04 10:38:29;;;;;;;6.70;1.90;;;;;;;23.53;33.74;101509.09;5017487;28;20041;-76
2022/08/04 10:41:02;;;;;;;7.28;1.60;;;;;;;21.74;37.46;101509.19;5028551;28;20041;-77
2022/08/04 10:43:34;;;;;;;4.28;1.48;;;;;;;20.88;38.82;101512.97;5001564;28;20090;-79
2022/08/04 10:46:09;;;;;;;5.00;1.58;;;;;;;21.08;39.72;101499.91;5017722;28;20040;-76
2022/08/04 10:48:46;;;;;;;5.80;1.13;;;;;;;20.24;43.03;101505.91;4999313;28;20053;-79
2022/08/04 10:51:25;;;;;;;8.75;2.28;;;;;;;19.49;45.60;101525.66;5012033;28;20467;-77
2022/08/04 10:53:59;;;;;;;7.03;2.28;;;;;;;19.13;46.60;101531.63;5001562;28;20048;-77
2022/08/04 10:56:33;;;;;;;7.60;3.05;;;;;;;19.24;45.18;101526.38;5027161;28;20459;-77
2022/08/04 10:59:07;;;;;;;6.13;1.20;;;;;;;19.43;45.71;101521.91;4991571;28;20029;-78
2022/08/04 11:01:42;;;;;;;6.90;1.85;;;;;;;20.07;44.43;101525.56;5022799;28;20496;-78
2022/08/04 11:04:15;;;;;;;5.82;1.50;;;;;;;19.73;45.66;101538.56;5026262;28;20495;-78
2022/08/04 11:06:42;;;;;;;5.57;1.33;;;;;;;19.33;46.75;101533.25;5010984;28;20033;-78
2022/08/04 11:09:08;;;;;;;5.63;1.48;;;;;;;19.81;46.36;101533.94;4996991;28;20383;-79
2022/08/04 11:11:43;;;;;;;8.77;1.85;;;;;;;20.70;43.66;101530.16;5009711;28;20033;-78
2022/08/04 11:14:19;;;;;;;10.20;1.60;;;;;;;21.14;42.22;101538.34;5009429;28;20069;-79
2022/08/04 11:16:50;;;;;;;4.97;1.70;;;;;;;25.23;33.38;101537.28;5008016;28;20176;-80
2022/08/04 11:19:28;;;;;;;7.95;1.85;;;;;;;28.14;28.87;101518.47;5026770;28;20032;-79
2022/08/04 11:22:08;;;;;;;8.35;1.38;;;;;;;26.39;31.67;101551.81;5014234;28;20061;-78
2022/08/04 11:24:58;;;;;;;5.72;1.45;;;;;;;23.27;35.21;101552.47;5027027;28;20118;-80
2022/08/04 11:27:25;;;;;;;3.08;1.17;;;;;;;21.31;38.70;101555.81;5020052;28;20109;-80
2022/08/04 11:30:04;;;;;;;2.08;0.90;;;;;;;20.29;40.02;101552.53;5028120;28;20029;-77
2022/08/04 11:32:52;;;;;;;4.25;1.10;;;;;;;19.84;42.18;101553.41;4996235;28;20434;-78
2022/08/04 11:35:34;;;;;;;4.43;1.20;;;;;;;20.15;42.58;101546.31;5026635;28;20103;-78
2022/08/04 11:38:24;;;;;;;3.88;1.48;;;;;;;24.04;35.08;101549.38;5013697;28;20029;-78
2022/08/04 11:40:56;;;;;;;8.35;1.50;;;;;;;26.61;30.16;101557.25;5008868;28;20079;-78
2022/08/04 11:43:28;;;;;;;4.32;1.25;;;;;;;27.60;29.57;101550.13;5001408;28;20379;-78
2022/08/04 11:45:59;;;;;;;4.13;1.60;;;;;;;29.42;26.15;101553.47;5028877;28;20040;-79
2022/08/04 11:48:57;;;;;;;5.35;1.05;;;;;;;29.26;25.46;101561.81;4986170;28;20124;-79
2022/08/04 11:51:25;;;;;;;5.85;1.38;;;;;;;27.51;27.41;101557.25;5035717;28;20132;-79
2022/08/04 11:53:51;;;;;;;5.15;1.30;;;;;;;27.23;27.79;101571.47;4995102;28;20037;-79
2022/08/04 11:56:17;;;;;;;4.57;1.13;;;;;;;25.55;30.48;101558.63;5025118;28;20056;-78
2022/08/04 11:58:46;;;;;;;4.35;1.42;;;;;;;26.56;29.18;101576.50;4993519;28;20030;-78
2022/08/04 12:01:24;;;;;;;3.58;1.67;;;;;;;28.11;27.63;101546.69;5013188;28;20483;-78
2022/08/04 12:03:56;;;;;;;2.92;0.90;;;;;;;28.47;26.81;101558.63;4997080;28;20057;-79
2022/08/04 12:06:27;;;;;;;3.38;1.33;;;;;;;25.52;31.06;101567.41;5029754;28;20033;-78